createdAt,value
2018-05-03T00:00:53.129Z,92.10
2018-05-03T00:03:56.433Z,91.80
2018-05-03T00:06:59.608Z,91.50
2018-05-03T00:10:02.936Z,91.90
2018-05-03T00:13:06.133Z,92.20
2018-05-03T00:16:09.482Z,92.10
2018-05-03T00:19:12.684Z,92.30
2018-05-03T00:22:21.440Z,91.60
2018-05-03T00:25:29.795Z,91.20
2018-05-03T00:28:35.509Z,91.50
2018-05-03T00:31:38.779Z,91.90
2018-05-03T00:34:43.125Z,92.00
2018-05-03T00:37:47.363Z,92.20
2018-05-03T00:40:50.701Z,92.10
2018-05-03T00:43:53.906Z,91.90
2018-05-03T00:46:57.534Z,91.80
2018-05-03T00:50:00.795Z,92.00
2018-05-03T00:53:03.973Z,91.70
2018-05-03T00:56:07.173Z,91.50
2018-05-03T00:59:11.250Z,91.30
2018-05-03T01:02:14.512Z,91.20
2018-05-03T01:05:18.167Z,91.10
2018-05-03T01:08:21.484Z,91.20
2018-05-03T01:11:25.459Z,92.00
2018-05-03T01:14:28.714Z,91.80
2018-05-03T01:17:31.920Z,92.10
2018-05-03T01:20:35.220Z,91.10
2018-05-03T01:23:38.594Z,90.90
2018-05-03T01:26:41.912Z,91.20
2018-05-03T01:29:45.408Z,91.10
2018-05-03T01:32:48.856Z,91.90
2018-05-03T01:36:03.879Z,91.50
2018-05-03T01:39:07.249Z,91.20
2018-05-03T01:42:10.676Z,91.50
2018-05-03T01:45:13.881Z,91.60
2018-05-03T01:48:17.161Z,91.00
2018-05-03T01:51:20.465Z,91.50
2018-05-03T01:54:24.409Z,91.90
2018-05-03T01:57:27.689Z,91.90
2018-05-03T02:00:30.991Z,91.80
2018-05-03T02:03:35.033Z,91.80
2018-05-03T02:06:39.015Z,92.20
2018-05-03T02:09:42.233Z,92.00
2018-05-03T02:12:45.603Z,92.40
2018-05-03T02:15:48.873Z,92.00
2018-05-03T02:18:52.071Z,91.90
2018-05-03T02:21:55.269Z,92.00
2018-05-03T02:24:59.332Z,92.30
2018-05-03T02:28:02.584Z,92.20
2018-05-03T02:31:05.915Z,92.30
2018-05-03T02:34:09.144Z,92.00
2018-05-03T02:37:13.199Z,92.50
2018-05-03T02:40:16.398Z,92.40
2018-05-03T02:43:20.133Z,92.90
2018-05-03T02:46:23.413Z,92.40
2018-05-03T02:49:26.660Z,92.80
2018-05-03T02:52:29.928Z,93.00
2018-05-03T02:55:33.148Z,93.20
2018-05-03T02:58:49.108Z,93.10
2018-05-03T03:01:57.982Z,93.10
2018-05-03T03:09:07.440Z,93.00
2018-05-03T03:12:24.118Z,94.10
2018-05-03T03:15:42.796Z,94.00
2018-05-03T03:19:09.531Z,93.50
2018-05-03T03:26:30.578Z,93.40
2018-05-03T03:29:45.773Z,93.60
2018-05-03T03:33:01.044Z,93.10
2018-05-03T03:36:16.178Z,93.30
2018-05-03T03:39:31.391Z,92.80
2018-05-03T03:46:17.028Z,93.30
2018-05-03T03:49:20.402Z,93.70
2018-05-03T03:52:24.448Z,93.20
2018-05-03T03:55:27.675Z,93.50
2018-05-03T03:58:31.772Z,94.00
2018-05-03T04:01:35.872Z,93.80
2018-05-03T04:04:39.171Z,94.00
2018-05-03T04:07:43.511Z,94.00
2018-05-03T04:10:48.048Z,94.00
2018-05-03T04:13:51.634Z,94.70
2018-05-03T04:16:56.328Z,94.80
2018-05-03T04:24:05.814Z,94.90
2018-05-03T04:27:09.317Z,93.90
2018-05-03T04:30:13.204Z,93.20
2018-05-03T04:33:16.439Z,94.00
2018-05-03T04:36:19.677Z,93.50
2018-05-03T04:39:24.155Z,93.70
2018-05-03T04:42:28.240Z,93.10
2018-05-03T04:45:32.626Z,93.00
2018-05-03T04:48:42.150Z,92.90
2018-05-03T04:51:46.031Z,92.80
2018-05-03T04:54:49.471Z,92.30
2018-05-03T04:57:53.077Z,92.20
2018-05-03T05:00:56.296Z,92.30
2018-05-03T05:04:00.814Z,92.20
2018-05-03T05:07:04.851Z,92.20
2018-05-03T05:10:08.312Z,92.10
2018-05-03T05:13:11.896Z,92.30
2018-05-03T05:16:15.083Z,92.20
2018-05-03T05:19:29.307Z,92.50
2018-05-03T05:22:33.696Z,92.50
2018-05-03T05:25:38.052Z,91.90
2018-05-03T05:28:43.425Z,92.10
2018-05-03T05:31:48.553Z,92.00
2018-05-03T05:34:51.752Z,92.20
2018-05-03T05:37:55.999Z,92.40
2018-05-03T05:40:59.395Z,92.30
2018-05-03T05:44:02.779Z,91.70
2018-05-03T05:47:06.014Z,91.60
2018-05-03T05:50:09.694Z,91.90
2018-05-03T05:53:12.885Z,92.10
2018-05-03T05:56:16.136Z,91.30
2018-05-03T05:59:20.214Z,90.90
2018-05-03T06:02:24.533Z,88.50
2018-05-03T06:05:27.854Z,88.80
2018-05-03T06:08:31.821Z,85.90
2018-05-03T06:11:35.630Z,85.80
2018-05-03T06:14:38.987Z,87.20
2018-05-03T06:21:13.521Z,84.20
2018-05-03T06:24:16.932Z,84.70
2018-05-03T06:27:20.179Z,83.00
2018-05-03T06:30:26.245Z,83.10
2018-05-03T06:33:29.539Z,83.10
2018-05-03T06:36:33.031Z,82.30
2018-05-03T06:39:37.093Z,84.20
2018-05-03T06:42:42.266Z,84.00
2018-05-03T06:45:45.497Z,82.00
2018-05-03T06:48:52.504Z,80.70
2018-05-03T06:51:55.777Z,79.50
2018-05-03T06:55:18.078Z,78.10
2018-05-03T07:01:49.731Z,80.30
2018-05-03T07:04:52.992Z,77.90
2018-05-03T07:07:56.534Z,74.40
2018-05-03T07:10:59.792Z,70.80
2018-05-03T07:14:03.903Z,70.20
2018-05-03T07:17:07.216Z,69.70
2018-05-03T07:20:10.627Z,63.90
2018-05-03T07:23:21.733Z,63.60
2018-05-03T07:26:25.806Z,62.10
2018-05-03T07:29:46.933Z,65.40
2018-05-03T07:32:51.868Z,66.80
2018-05-03T07:35:55.347Z,66.20
2018-05-03T07:38:58.781Z,67.20
2018-05-03T07:42:03.632Z,67.80
2018-05-03T07:45:18.350Z,70.60
2018-05-03T07:48:22.466Z,70.50
2018-05-03T07:51:25.983Z,69.90
2018-05-03T07:54:29.608Z,69.10
2018-05-03T07:57:32.866Z,70.00
2018-05-03T08:00:36.174Z,68.50
2018-05-03T08:03:40.143Z,66.40
2018-05-03T08:10:00.617Z,66.20
2018-05-03T08:13:03.976Z,65.50
2018-05-03T08:16:07.354Z,66.40
2018-05-03T08:22:32.535Z,66.30
2018-05-03T08:25:36.065Z,66.00
2018-05-03T08:28:40.763Z,67.20
2018-05-03T08:31:44.144Z,67.00
2018-05-03T08:34:58.829Z,68.30
2018-05-03T08:38:04.550Z,65.60
2018-05-03T08:41:07.809Z,64.50
2018-05-03T08:44:14.103Z,64.20
2018-05-03T08:47:25.134Z,64.50
2018-05-03T08:50:37.266Z,60.80
2018-05-03T08:57:38.195Z,58.70
2018-05-03T09:07:59.241Z,58.90
2018-05-03T09:15:00.606Z,60.80
2018-05-03T09:18:10.738Z,58.60
2018-05-03T09:42:15.552Z,60.70
2018-05-03T09:45:21.128Z,60.70
2018-05-03T09:48:25.989Z,61.90
2018-05-03T09:51:30.490Z,62.60
2018-05-03T09:54:33.888Z,61.40
2018-05-03T09:57:41.942Z,62.40
2018-05-03T10:00:46.731Z,61.30
2018-05-03T10:03:50.569Z,61.00
2018-05-03T10:06:57.866Z,60.00
2018-05-03T10:10:05.899Z,59.40
2018-05-03T10:13:09.610Z,60.60
2018-05-03T10:16:19.348Z,64.20
2018-05-03T10:19:23.649Z,64.80
2018-05-03T10:22:27.802Z,61.50
2018-05-03T10:25:31.081Z,61.30
2018-05-03T10:28:53.666Z,60.70
2018-05-03T10:32:22.505Z,59.80
2018-05-03T10:35:34.077Z,61.10
2018-05-03T10:38:50.799Z,63.50
2018-05-03T10:41:54.241Z,63.30
2018-05-03T10:44:57.841Z,63.60
2018-05-03T10:48:03.859Z,60.30
2018-05-03T10:54:27.932Z,58.50
2018-05-03T10:57:39.888Z,57.60
2018-05-03T11:01:00.579Z,56.90
2018-05-03T11:04:05.165Z,57.00
2018-05-03T11:07:08.518Z,56.60
2018-05-03T11:10:12.028Z,56.80
2018-05-03T11:13:33.650Z,56.30
2018-05-03T11:16:58.700Z,53.00
2018-05-03T11:23:31.793Z,52.00
2018-05-03T11:26:35.028Z,53.10
2018-05-03T11:29:40.516Z,53.70
2018-05-03T11:32:44.056Z,52.90
2018-05-03T11:39:33.984Z,48.80
2018-05-03T11:46:04.939Z,49.50
2018-05-03T11:49:09.205Z,51.10
2018-05-03T11:52:13.034Z,50.70
2018-05-03T12:03:38.023Z,52.60
2018-05-03T12:06:42.085Z,55.00
2018-05-03T12:10:03.847Z,54.70
2018-05-03T12:13:08.720Z,54.40
2018-05-03T12:46:38.350Z,54.10
2018-05-03T12:53:11.022Z,52.40
2018-05-03T12:56:15.176Z,54.30
2018-05-03T12:59:20.178Z,54.00
2018-05-03T13:02:43.794Z,56.00
2018-05-03T13:05:47.994Z,55.70
2018-05-03T13:12:19.150Z,52.20
2018-05-03T13:15:32.339Z,51.30
2018-05-03T13:18:36.452Z,52.10
2018-05-03T13:21:39.714Z,51.80
2018-05-03T13:24:50.316Z,50.60
2018-05-03T13:27:54.352Z,50.40
2018-05-03T13:30:58.519Z,50.40
2018-05-03T13:34:01.858Z,50.20
2018-05-03T13:37:21.809Z,50.30
2018-05-03T13:40:25.147Z,50.10
2018-05-03T13:43:51.939Z,48.30
2018-05-03T13:46:59.305Z,48.30
2018-05-03T13:50:02.491Z,49.60
2018-05-03T13:53:05.691Z,48.80
2018-05-03T13:56:24.147Z,47.60
2018-05-03T13:59:27.708Z,48.90
2018-05-03T14:02:31.949Z,49.20
2018-05-03T14:09:02.908Z,48.40
2018-05-03T14:12:26.985Z,48.80
2018-05-03T14:19:18.361Z,49.90
2018-05-03T14:22:30.622Z,49.60
2018-05-03T14:29:04.023Z,48.50
2018-05-03T14:36:32.490Z,47.30
2018-05-03T14:39:40.703Z,49.90
2018-05-03T14:50:52.902Z,49.80
2018-05-03T14:57:28.327Z,48.60
2018-05-03T15:07:28.354Z,50.70
2018-05-03T15:10:36.465Z,51.30
2018-05-03T15:13:39.932Z,51.80
2018-05-03T15:16:43.382Z,52.20
2018-05-03T15:19:49.972Z,53.00
2018-05-03T15:22:54.993Z,52.60
2018-05-03T15:26:01.122Z,52.80
2018-05-03T15:29:06.578Z,51.70
2018-05-03T15:32:10.023Z,52.80
2018-05-03T15:35:13.368Z,51.50
2018-05-03T15:38:16.649Z,50.80
2018-05-03T15:41:20.132Z,50.00
2018-05-03T15:44:24.477Z,50.70
2018-05-03T15:47:30.113Z,50.00
2018-05-03T15:50:33.514Z,49.50
2018-05-03T15:53:36.818Z,49.20
2018-05-03T15:56:40.282Z,49.70
2018-05-03T15:59:43.673Z,49.50
2018-05-03T16:02:46.995Z,49.70
2018-05-03T16:05:50.534Z,49.70
2018-05-03T16:08:53.791Z,50.60
2018-05-03T16:11:57.080Z,49.60
2018-05-03T16:15:00.889Z,49.20
2018-05-03T16:18:04.172Z,49.10
2018-05-03T16:21:07.434Z,50.30
2018-05-03T16:24:12.581Z,50.70
2018-05-03T16:27:16.885Z,49.50
2018-05-03T16:30:20.678Z,49.20
2018-05-03T16:33:25.471Z,48.90
2018-05-03T16:36:44.237Z,50.40
2018-05-03T16:39:48.341Z,49.60
2018-05-03T16:42:53.210Z,50.00
2018-05-03T16:45:57.392Z,50.00
2018-05-03T16:49:00.965Z,50.10
2018-05-03T16:52:04.592Z,49.10
2018-05-03T16:55:11.812Z,48.80
2018-05-03T16:58:18.179Z,49.80
2018-05-03T17:01:24.426Z,49.50
2018-05-03T17:04:28.762Z,50.40
2018-05-03T17:10:55.996Z,48.60
2018-05-03T17:14:00.185Z,49.60
2018-05-03T17:17:04.327Z,49.10
2018-05-03T17:20:30.461Z,48.80
2018-05-03T17:23:57.564Z,49.60
2018-05-03T17:27:02.461Z,49.30
2018-05-03T17:30:06.164Z,50.10
2018-05-03T17:33:09.584Z,50.30
2018-05-03T17:36:13.114Z,50.10
2018-05-03T17:39:31.756Z,45.30
2018-05-03T17:46:02.101Z,47.00
2018-05-03T17:49:07.238Z,46.90
2018-05-03T17:52:31.537Z,46.80
2018-05-03T17:55:35.026Z,46.70
2018-05-03T17:59:02.156Z,47.10
2018-05-03T18:02:07.755Z,46.60
2018-05-03T18:05:11.100Z,46.40
2018-05-03T18:08:34.140Z,46.30
2018-05-03T18:11:37.664Z,46.90
2018-05-03T18:14:54.327Z,47.80
2018-05-03T18:25:08.543Z,47.10
2018-05-03T18:28:12.614Z,47.80
2018-05-03T18:31:15.752Z,47.70
2018-05-03T18:37:57.767Z,47.90
2018-05-03T18:41:03.168Z,47.60
2018-05-03T18:51:42.860Z,48.50
2018-05-03T18:55:01.070Z,48.70
2018-05-03T18:58:06.102Z,48.90
2018-05-03T19:01:13.941Z,48.50
2018-05-03T19:04:45.219Z,49.60
2018-05-03T19:11:42.938Z,52.80
2018-05-03T19:14:48.429Z,49.60
2018-05-03T19:17:52.439Z,50.20
2018-05-03T19:20:58.518Z,49.90
2018-05-03T19:24:02.524Z,49.60
2018-05-03T19:27:06.549Z,49.60
2018-05-03T19:30:09.847Z,49.30
2018-05-03T19:33:19.163Z,49.20
2018-05-03T19:36:22.385Z,49.60
2018-05-03T19:39:26.311Z,49.30
2018-05-03T19:42:29.709Z,49.50
2018-05-03T19:45:50.696Z,50.00
2018-05-03T19:53:32.555Z,50.30
2018-05-03T19:56:54.257Z,50.10
2018-05-03T20:00:12.242Z,51.30
2018-05-03T20:03:30.280Z,50.10
2018-05-03T20:06:53.200Z,51.00
2018-05-03T20:09:57.250Z,51.70
2018-05-03T20:13:01.454Z,51.50
2018-05-03T20:16:05.508Z,51.10
2018-05-03T20:19:17.009Z,51.60
2018-05-03T20:33:19.378Z,52.00
2018-05-03T20:36:23.872Z,52.40
2018-05-03T20:43:00.477Z,53.10
2018-05-03T20:46:10.403Z,53.20
2018-05-03T20:52:41.583Z,54.30
2018-05-03T20:55:46.258Z,58.40
2018-05-03T20:59:02.987Z,58.00
2018-05-03T21:02:06.204Z,53.80
2018-05-03T21:08:28.684Z,54.30
2018-05-03T21:11:37.722Z,54.30
2018-05-03T21:14:42.584Z,54.60
2018-05-03T21:17:47.407Z,55.10
2018-05-03T21:20:53.339Z,57.20
2018-05-03T21:23:59.467Z,56.00
2018-05-03T21:27:10.479Z,55.70
2018-05-03T21:30:14.145Z,56.20
2018-05-03T21:33:17.505Z,56.60
2018-05-03T21:36:33.261Z,57.50
2018-05-03T21:39:38.364Z,56.70
2018-05-03T21:42:41.729Z,56.80
2018-05-03T21:45:46.204Z,58.40
2018-05-03T21:48:49.524Z,59.10
2018-05-03T21:51:54.679Z,63.70
2018-05-03T21:54:59.971Z,62.90
2018-05-03T21:58:03.470Z,62.60
2018-05-03T22:01:10.082Z,64.10
2018-05-03T22:04:14.445Z,66.40
2018-05-03T22:07:17.705Z,63.40
2018-05-03T22:10:36.926Z,65.50
2018-05-03T22:13:40.978Z,66.60
2018-05-03T22:16:46.533Z,69.90
2018-05-03T22:19:49.897Z,69.30
2018-05-03T22:23:06.825Z,70.20
2018-05-03T22:26:15.677Z,68.90
2018-05-03T22:29:19.259Z,74.00
2018-05-03T22:32:27.068Z,73.00
2018-05-03T22:35:38.711Z,72.20
2018-05-03T22:38:47.071Z,73.30
2018-05-03T22:41:51.605Z,72.80
2018-05-03T22:48:10.032Z,73.10
2018-05-03T22:51:13.348Z,72.50
2018-05-03T22:54:17.497Z,75.00
2018-05-03T22:57:20.902Z,76.30
2018-05-03T23:00:25.844Z,77.70
2018-05-03T23:03:29.310Z,77.30
2018-05-03T23:06:33.866Z,76.80
2018-05-03T23:09:37.391Z,76.40
2018-05-03T23:12:40.912Z,77.70
2018-05-03T23:15:46.746Z,77.00
2018-05-03T23:18:59.130Z,77.90
2018-05-03T23:22:04.310Z,79.60
2018-05-03T23:25:11.527Z,79.20
2018-05-03T23:31:31.032Z,76.70
2018-05-03T23:34:34.398Z,76.20
2018-05-03T23:37:38.537Z,75.80
2018-05-03T23:40:43.741Z,77.50
2018-05-03T23:43:47.077Z,78.80
2018-05-03T23:46:50.387Z,78.50
2018-05-03T23:49:53.714Z,80.20
2018-05-03T23:52:57.941Z,79.50
2018-05-03T23:56:01.352Z,79.00
2018-05-03T23:59:04.719Z,80.00
